createdAt,value
2023-04-05T00:01:09.043Z,71
2023-04-05T00:03:08.863Z,71
2023-04-05T00:05:08.973Z,72
2023-04-05T00:07:09.208Z,72
2023-04-05T00:09:08.919Z,73
2023-04-05T00:11:12.174Z,73
2023-04-05T00:13:08.929Z,73
2023-04-05T00:15:08.995Z,72
2023-04-05T00:17:10.220Z,73
2023-04-05T00:19:09.790Z,74
2023-04-05T00:21:08.951Z,73
2023-04-05T00:23:12.329Z,73
2023-04-05T00:27:18.591Z,73
2023-04-05T00:29:08.907Z,74
2023-04-05T00:31:12.232Z,74
2023-04-05T00:33:09.011Z,76
2023-04-05T00:35:09.097Z,76
2023-04-05T00:37:08.968Z,76
2023-04-05T00:39:08.958Z,75
2023-04-05T00:41:09.233Z,77
2023-04-05T00:43:08.977Z,76
2023-04-05T00:45:12.230Z,76
2023-04-05T00:47:09.001Z,76
2023-04-05T00:49:09.619Z,75
2023-04-05T00:51:09.018Z,75
2023-04-05T00:53:08.942Z,75
2023-04-05T00:55:09.028Z,75
2023-04-05T00:57:09.068Z,75
2023-04-05T00:59:09.027Z,75
2023-04-05T01:01:08.976Z,76
2023-04-05T01:03:08.967Z,75
2023-04-05T01:05:10.802Z,74
2023-04-05T01:07:08.981Z,74
2023-04-05T01:09:09.561Z,74
2023-04-05T01:11:12.194Z,74
2023-04-05T01:13:09.018Z,74
2023-04-05T01:15:09.044Z,75
2023-04-05T01:17:12.293Z,74
2023-04-05T01:19:13.738Z,74
2023-04-05T01:21:18.902Z,74
2023-04-05T01:23:12.174Z,75
2023-04-05T01:25:19.104Z,75
2023-04-05T01:27:09.090Z,75
2023-04-05T01:29:09.046Z,74
2023-04-05T01:31:09.090Z,74
2023-04-05T01:33:09.181Z,74
2023-04-05T01:35:09.016Z,74
2023-04-05T01:37:09.433Z,75
2023-04-05T01:39:08.720Z,74
2023-04-05T01:41:09.030Z,75
2023-04-05T01:43:09.190Z,75
2023-04-05T01:45:08.953Z,75
2023-04-05T01:47:10.672Z,75
2023-04-05T01:49:09.224Z,75
2023-04-05T01:51:11.977Z,76
2023-04-05T01:53:12.145Z,76
2023-04-05T01:55:09.414Z,76
2023-04-05T01:57:09.049Z,75
2023-04-05T02:01:09.229Z,75
2023-04-05T02:03:09.106Z,75
2023-04-05T02:05:12.278Z,74
2023-04-05T02:07:09.702Z,75
2023-04-05T02:09:12.157Z,75
2023-04-05T02:11:09.014Z,75
2023-04-05T02:13:08.678Z,75
2023-04-05T02:17:12.314Z,75
2023-04-05T02:19:08.981Z,75
2023-04-05T02:23:09.051Z,74
2023-04-05T02:27:12.435Z,74
2023-04-05T02:29:12.223Z,74
2023-04-05T02:31:09.025Z,75
2023-04-05T02:33:09.070Z,75
2023-04-05T02:35:09.042Z,75
2023-04-05T02:37:09.046Z,76
2023-04-05T02:39:08.975Z,75
2023-04-05T02:41:09.002Z,76
2023-04-05T02:43:09.323Z,76
2023-04-05T02:45:10.802Z,76
2023-04-05T02:47:08.914Z,76
2023-04-05T02:49:08.983Z,75
2023-04-05T02:51:12.200Z,75
2023-04-05T02:53:08.939Z,75
2023-04-05T02:57:09.011Z,75
2023-04-05T02:59:08.947Z,75
2023-04-05T03:01:12.079Z,75
2023-04-05T03:03:09.144Z,75
2023-04-05T03:05:12.010Z,75
2023-04-05T03:07:08.889Z,76
2023-04-05T03:09:09.040Z,75
2023-04-05T03:11:09.188Z,75
2023-04-05T03:15:08.934Z,76
2023-04-05T03:17:09.033Z,76
2023-04-05T03:23:12.017Z,77
2023-04-05T03:25:09.190Z,77
2023-04-05T03:27:09.045Z,77
2023-04-05T03:29:09.505Z,77
2023-04-05T03:31:09.060Z,77
2023-04-05T03:33:09.044Z,78
2023-04-05T03:39:08.962Z,78
2023-04-05T03:43:08.934Z,78
2023-04-05T03:45:09.041Z,78
2023-04-05T03:47:10.604Z,78
2023-04-05T03:49:08.900Z,79
2023-04-05T03:51:12.250Z,78
2023-04-05T03:53:08.980Z,79
2023-04-05T03:59:12.296Z,79
2023-04-05T04:01:09.015Z,78
2023-04-05T04:03:12.483Z,78
2023-04-05T04:05:09.078Z,79
2023-04-05T04:07:12.146Z,79
2023-04-05T04:11:09.048Z,78
2023-04-05T04:13:09.025Z,79
2023-04-05T04:15:10.643Z,79
2023-04-05T04:17:09.005Z,79
2023-04-05T04:19:09.000Z,79
2023-04-05T04:21:09.089Z,79
2023-04-05T04:23:08.970Z,79
2023-04-05T04:27:09.076Z,79
2023-04-05T04:29:09.066Z,79
2023-04-05T04:31:12.218Z,79
2023-04-05T04:33:09.468Z,79
2023-04-05T04:35:09.073Z,79
2023-04-05T04:37:09.032Z,79
2023-04-05T04:39:12.237Z,79
2023-04-05T04:41:09.042Z,79
2023-04-05T04:43:09.000Z,79
2023-04-05T04:45:09.060Z,79
2023-04-05T04:47:09.059Z,80
2023-04-05T04:49:09.010Z,80
2023-04-05T04:51:12.222Z,80
2023-04-05T04:53:09.068Z,80
2023-04-05T04:55:11.948Z,79
2023-04-05T04:57:09.091Z,79
2023-04-05T04:59:09.050Z,79
2023-04-05T05:01:08.988Z,80
2023-04-05T05:05:08.808Z,80
2023-04-05T05:07:09.026Z,80
2023-04-05T05:09:09.088Z,80
2023-04-05T05:11:22.595Z,80
2023-04-05T05:13:11.839Z,80
2023-04-05T05:15:09.070Z,80
2023-04-05T05:17:09.026Z,80
2023-04-05T05:19:09.018Z,80
2023-04-05T05:21:18.670Z,80
2023-04-05T05:23:12.409Z,80
2023-04-05T05:25:09.672Z,79
2023-04-05T05:27:09.047Z,79
2023-04-05T05:29:09.170Z,79
2023-04-05T05:31:09.020Z,79
2023-04-05T05:33:08.888Z,79
2023-04-05T05:35:09.300Z,78
2023-04-05T05:37:12.340Z,78
2023-04-05T05:39:09.065Z,79
2023-04-05T05:41:12.191Z,79
2023-04-05T05:43:09.046Z,79
2023-04-05T05:45:09.066Z,79
2023-04-05T05:47:08.966Z,79
2023-04-05T05:51:09.053Z,79
2023-04-05T05:53:09.040Z,78
2023-04-05T05:55:09.006Z,79
2023-04-05T05:57:10.870Z,78
2023-04-05T05:59:09.028Z,78
2023-04-05T06:01:08.981Z,78
2023-04-05T06:03:09.114Z,77
2023-04-05T06:05:09.129Z,77
2023-04-05T06:07:09.044Z,77
2023-04-05T06:09:12.192Z,77
2023-04-05T06:11:12.338Z,77
2023-04-05T06:13:09.298Z,77
2023-04-05T06:15:12.305Z,76
2023-04-05T06:17:09.044Z,76
2023-04-05T06:21:09.253Z,76
2023-04-05T06:23:09.036Z,76
2023-04-05T06:25:09.004Z,76
2023-04-05T06:27:09.063Z,76
2023-04-05T06:29:12.390Z,75
2023-04-05T06:31:10.343Z,73
2023-04-05T06:33:12.226Z,67
2023-04-05T06:35:09.094Z,63
2023-04-05T06:39:09.073Z,58
2023-04-05T06:41:08.944Z,59
2023-04-05T06:43:13.885Z,57
2023-04-05T06:45:09.022Z,56
2023-04-05T06:47:12.310Z,56
2023-04-05T06:49:18.656Z,56
2023-04-05T06:51:08.973Z,57
2023-04-05T06:53:18.659Z,56
2023-04-05T06:55:09.104Z,56
2023-04-05T06:59:10.769Z,53
2023-04-05T07:01:10.718Z,54
2023-04-05T07:03:09.102Z,53
2023-04-05T07:05:09.066Z,53
2023-04-05T07:07:08.984Z,54
2023-04-05T07:09:09.375Z,54
2023-04-05T07:11:09.091Z,53
2023-04-05T07:13:07.464Z,53
2023-04-05T07:15:09.063Z,53
2023-04-05T07:17:09.052Z,54
2023-04-05T07:19:12.038Z,54
2023-04-05T07:21:09.062Z,54
2023-04-05T07:23:13.933Z,53
2023-04-05T07:25:09.947Z,54
2023-04-05T07:27:09.066Z,53
2023-04-05T07:29:12.608Z,54
2023-04-05T07:31:09.054Z,54
2023-04-05T07:33:11.292Z,53
2023-04-05T07:35:13.716Z,53
2023-04-05T07:37:08.991Z,53
2023-04-05T07:39:09.078Z,52
2023-04-05T07:41:09.039Z,54
2023-04-05T07:43:12.484Z,54
2023-04-05T07:45:16.956Z,54
2023-04-05T07:47:09.038Z,54
2023-04-05T07:49:12.297Z,54
2023-04-05T07:53:09.083Z,55
2023-04-05T07:55:09.291Z,55
2023-04-05T07:57:07.571Z,55
2023-04-05T07:59:09.041Z,55
2023-04-05T08:01:12.131Z,55
2023-04-05T08:03:12.448Z,55
2023-04-05T08:05:09.021Z,55
2023-04-05T08:07:09.728Z,54
2023-04-05T08:09:09.133Z,54
2023-04-05T08:11:09.089Z,55
2023-04-05T08:13:12.213Z,54
2023-04-05T08:15:08.997Z,54
2023-04-05T08:17:09.282Z,54
2023-04-05T08:19:09.053Z,53
2023-04-05T08:21:13.913Z,53
2023-04-05T08:23:09.062Z,53
2023-04-05T08:25:09.028Z,53
2023-04-05T08:27:09.080Z,55
2023-04-05T08:29:08.962Z,53
2023-04-05T08:31:13.815Z,54
2023-04-05T08:33:09.164Z,53
2023-04-05T08:35:09.050Z,53
2023-04-05T08:37:09.041Z,52
2023-04-05T08:39:09.063Z,52
2023-04-05T08:41:12.271Z,52
2023-04-05T08:43:08.951Z,53
2023-04-05T08:45:07.526Z,53
2023-04-05T08:47:12.205Z,51
2023-04-05T08:49:09.017Z,53
2023-04-05T08:53:09.058Z,52
2023-04-05T08:55:09.093Z,51
2023-04-05T08:57:09.119Z,52
2023-04-05T08:59:12.354Z,51
2023-04-05T09:01:09.048Z,51
2023-04-05T09:03:09.137Z,51
2023-04-05T09:05:12.336Z,51
2023-04-05T09:07:09.083Z,52
2023-04-05T09:09:09.034Z,52
2023-04-05T09:11:09.050Z,49
2023-04-05T09:13:10.072Z,50
2023-04-05T09:15:15.455Z,49
2023-04-05T09:21:09.028Z,50
2023-04-05T09:23:09.052Z,50
2023-04-05T09:25:12.803Z,48
2023-04-05T09:27:09.113Z,48
2023-04-05T09:29:09.368Z,48
2023-04-05T09:31:09.375Z,49
2023-04-05T09:33:09.080Z,49
2023-04-05T09:35:09.095Z,49
2023-04-05T09:37:09.062Z,48
2023-04-05T09:39:08.900Z,48
2023-04-05T09:41:09.397Z,48
2023-04-05T09:43:09.163Z,49
2023-04-05T09:45:18.420Z,48
2023-04-05T09:47:08.977Z,48
2023-04-05T09:49:09.069Z,49
2023-04-05T09:51:12.444Z,49
2023-04-05T09:53:09.077Z,49
2023-04-05T09:57:12.275Z,48
2023-04-05T09:59:09.136Z,48
2023-04-05T10:01:16.601Z,48
2023-04-05T10:05:09.083Z,48
2023-04-05T10:07:09.210Z,49
2023-04-05T10:09:09.136Z,48
2023-04-05T10:11:09.056Z,48
2023-04-05T10:13:12.281Z,47
2023-04-05T10:15:12.324Z,47
2023-04-05T10:17:09.064Z,47
2023-04-05T10:19:09.120Z,47
2023-04-05T10:21:12.107Z,48
2023-04-05T10:23:09.048Z,49
2023-04-05T10:25:09.100Z,48
2023-04-05T10:27:09.397Z,46
2023-04-05T10:29:09.079Z,46
2023-04-05T10:31:09.085Z,47
2023-04-05T10:33:09.124Z,47
2023-04-05T10:35:09.053Z,46
2023-04-05T10:37:09.139Z,45
2023-04-05T10:39:09.113Z,46
2023-04-05T10:41:09.092Z,47
2023-04-05T10:43:09.090Z,46
2023-04-05T10:45:09.108Z,47
2023-04-05T10:47:09.037Z,47
2023-04-05T10:51:12.242Z,49
2023-04-05T10:53:08.956Z,46
2023-04-05T10:55:09.209Z,46
2023-04-05T10:57:15.306Z,46
2023-04-05T10:59:09.067Z,48
2023-04-05T11:01:09.100Z,48
2023-04-05T11:03:12.357Z,48
2023-04-05T11:05:09.074Z,46
2023-04-05T11:07:09.092Z,45
2023-04-05T11:09:09.120Z,46
2023-04-05T11:11:09.161Z,46
2023-04-05T11:15:07.599Z,45
2023-04-05T11:17:09.094Z,45
2023-04-05T11:19:09.081Z,46
2023-04-05T11:21:09.173Z,46
2023-04-05T11:23:09.364Z,47
2023-04-05T11:25:12.344Z,45
2023-04-05T11:27:09.114Z,46
2023-04-05T11:29:07.555Z,47
2023-04-05T11:33:12.304Z,45
2023-04-05T11:37:09.075Z,47
2023-04-05T11:39:08.926Z,45
2023-04-05T11:41:09.157Z,45
2023-04-05T11:43:09.070Z,45
2023-04-05T11:45:09.417Z,46
2023-04-05T11:47:13.954Z,44
2023-04-05T11:51:12.306Z,45
2023-04-05T11:53:09.054Z,43
2023-04-05T11:55:09.131Z,47
2023-04-05T11:57:09.439Z,47
2023-04-05T11:59:09.097Z,45
2023-04-05T12:01:09.084Z,45
2023-04-05T12:03:09.197Z,45
2023-04-05T12:05:08.925Z,45
2023-04-05T12:07:10.840Z,46
2023-04-05T12:11:09.064Z,48
2023-04-05T12:13:09.110Z,47
2023-04-05T12:15:09.182Z,46
2023-04-05T12:17:08.884Z,46
2023-04-05T12:19:12.643Z,45
2023-04-05T12:21:09.413Z,45
2023-04-05T12:23:09.044Z,44
2023-04-05T12:25:09.353Z,45
2023-04-05T12:27:12.359Z,44
2023-04-05T12:29:09.066Z,45
2023-04-05T12:31:09.084Z,45
2023-04-05T12:33:09.570Z,45
2023-04-05T12:35:09.095Z,45
2023-04-05T12:37:09.070Z,44
2023-04-05T12:39:09.147Z,45
2023-04-05T12:41:09.097Z,46
2023-04-05T12:43:12.311Z,45
2023-04-05T12:45:10.388Z,45
2023-04-05T12:47:08.875Z,47
2023-04-05T12:49:09.171Z,47
2023-04-05T12:51:11.015Z,47
2023-04-05T12:53:10.829Z,47
2023-04-05T12:55:09.174Z,46
2023-04-05T12:57:09.239Z,46
2023-04-05T12:59:15.487Z,45
2023-04-05T13:01:09.111Z,46
2023-04-05T13:03:12.628Z,45
2023-04-05T13:05:12.608Z,44
2023-04-05T13:11:09.096Z,44
2023-04-05T13:13:12.515Z,45
2023-04-05T13:15:09.139Z,44
2023-04-05T13:17:09.093Z,45
2023-04-05T13:19:12.085Z,45
2023-04-05T13:23:08.880Z,44
2023-04-05T13:25:09.478Z,44
2023-04-05T13:27:20.889Z,44
2023-04-05T13:29:09.121Z,43
2023-04-05T13:31:09.118Z,45
2023-04-05T13:33:08.886Z,45
2023-04-05T13:37:09.120Z,45
2023-04-05T13:39:09.137Z,45
2023-04-05T13:41:08.841Z,45
2023-04-05T13:43:10.024Z,46
2023-04-05T13:45:09.182Z,46
2023-04-05T13:47:09.095Z,44
2023-04-05T13:49:09.171Z,45
2023-04-05T13:51:09.133Z,45
2023-04-05T13:53:08.906Z,46
2023-04-05T13:57:09.387Z,47
2023-04-05T13:59:12.323Z,45
2023-04-05T14:01:09.098Z,45
2023-04-05T14:03:09.192Z,44
2023-04-05T14:05:09.100Z,45
2023-04-05T14:07:09.112Z,45
2023-04-05T14:11:09.096Z,44
2023-04-05T14:13:09.103Z,44
2023-04-05T14:15:09.106Z,44
2023-04-05T14:17:09.117Z,44
2023-04-05T14:19:09.136Z,44
2023-04-05T14:23:09.095Z,44
2023-04-05T14:25:09.089Z,45
2023-04-05T14:27:12.157Z,45
2023-04-05T14:31:12.337Z,45
2023-04-05T14:33:12.404Z,45
2023-04-05T14:35:12.417Z,45
2023-04-05T14:37:09.122Z,44
2023-04-05T14:39:09.194Z,44
2023-04-05T14:41:09.159Z,44
2023-04-05T14:43:12.457Z,44
2023-04-05T14:45:19.121Z,45
2023-04-05T14:47:09.073Z,45
2023-04-05T14:49:09.060Z,46
2023-04-05T14:51:09.098Z,47
2023-04-05T14:53:12.328Z,52
2023-04-05T14:55:09.190Z,52
2023-04-05T14:57:09.159Z,51
2023-04-05T14:59:09.452Z,47
2023-04-05T15:01:09.134Z,46
2023-04-05T15:03:09.221Z,49
2023-04-05T15:05:09.126Z,50
2023-04-05T15:07:09.095Z,43
2023-04-05T15:09:09.145Z,52
2023-04-05T15:11:12.341Z,51
2023-04-05T15:13:09.123Z,47
2023-04-05T15:15:12.414Z,43
2023-04-05T15:17:09.187Z,43
2023-04-05T15:19:09.114Z,44
2023-04-05T15:21:15.373Z,43
2023-04-05T15:25:09.155Z,43
2023-04-05T15:27:09.196Z,44
2023-04-05T15:29:09.162Z,44
2023-04-05T15:31:09.203Z,50
2023-04-05T15:33:11.297Z,47
2023-04-05T15:35:09.095Z,48
2023-04-05T15:37:13.885Z,44
2023-04-05T15:39:09.116Z,47
2023-04-05T15:41:09.109Z,45
2023-04-05T15:43:09.134Z,45
2023-04-05T15:45:09.149Z,44
2023-04-05T15:47:09.138Z,48
2023-04-05T15:49:11.624Z,52
2023-04-05T15:51:08.900Z,50
2023-04-05T15:53:09.130Z,51
2023-04-05T15:55:13.117Z,49
2023-04-05T15:57:09.163Z,52
2023-04-05T15:59:09.109Z,54
2023-04-05T16:01:09.136Z,50
2023-04-05T16:03:07.754Z,51
2023-04-05T16:05:09.103Z,51
2023-04-05T16:07:09.148Z,51
2023-04-05T16:11:09.171Z,44
2023-04-05T16:13:09.167Z,46
2023-04-05T16:17:09.192Z,46
2023-04-05T16:19:09.164Z,46
2023-04-05T16:23:09.117Z,46
2023-04-05T16:27:08.915Z,49
2023-04-05T16:29:09.136Z,51
2023-04-05T16:31:09.108Z,49
2023-04-05T16:33:06.486Z,47
2023-04-05T16:35:12.115Z,52
2023-04-05T16:37:18.180Z,52
2023-04-05T16:41:09.132Z,54
2023-04-05T16:43:12.426Z,46
2023-04-05T16:45:09.166Z,46
2023-04-05T16:47:09.117Z,46
2023-04-05T16:49:12.491Z,45
2023-04-05T16:51:12.162Z,46
2023-04-05T16:57:09.451Z,46
2023-04-05T16:59:13.221Z,46
2023-04-05T17:01:12.684Z,46
2023-04-05T17:03:09.539Z,46
2023-04-05T17:05:09.421Z,47
2023-04-05T17:07:09.370Z,46
2023-04-05T17:09:09.526Z,45
2023-04-05T17:11:09.463Z,45
2023-04-05T17:13:12.748Z,46
2023-04-05T17:15:09.759Z,46
2023-04-05T17:17:09.347Z,46
2023-04-05T17:19:09.384Z,45
2023-04-05T17:21:12.587Z,46
2023-04-05T17:23:09.435Z,46
2023-04-05T17:25:09.485Z,45
2023-04-05T17:27:12.461Z,46
2023-04-05T17:29:10.363Z,45
2023-04-05T17:31:11.310Z,45
2023-04-05T17:35:09.404Z,46
2023-04-05T17:37:09.497Z,46
2023-04-05T17:39:12.562Z,47
2023-04-05T17:41:11.116Z,46
2023-04-05T17:43:09.460Z,46
2023-04-05T17:45:09.456Z,46
2023-04-05T17:47:09.975Z,46
2023-04-05T17:49:12.626Z,47
2023-04-05T17:51:12.413Z,47
2023-04-05T17:53:09.398Z,48
2023-04-05T17:55:09.407Z,48
2023-04-05T17:57:09.486Z,48
2023-04-05T17:59:12.713Z,49
2023-04-05T18:01:09.524Z,49
2023-04-05T18:03:09.574Z,49
2023-04-05T18:05:09.443Z,49
2023-04-05T18:07:09.430Z,50
2023-04-05T18:09:09.429Z,50
2023-04-05T18:11:11.170Z,50
2023-04-05T18:13:09.471Z,51
2023-04-05T18:15:12.453Z,50
2023-04-05T18:17:09.430Z,51
2023-04-05T18:19:09.425Z,52
2023-04-05T18:21:09.762Z,52
2023-04-05T18:23:09.408Z,52
2023-04-05T18:25:09.417Z,52
2023-04-05T18:27:09.477Z,53
2023-04-05T18:29:09.422Z,53
2023-04-05T18:31:09.459Z,53
2023-04-05T18:33:09.811Z,53
2023-04-05T18:35:09.456Z,54
2023-04-05T18:37:09.421Z,53
2023-04-05T18:39:09.589Z,54
2023-04-05T18:41:12.628Z,54
2023-04-05T18:43:09.418Z,55
2023-04-05T18:45:09.503Z,54
2023-04-05T18:47:09.440Z,54
2023-04-05T18:49:09.626Z,54
2023-04-05T18:51:10.070Z,55
2023-04-05T18:55:09.498Z,54
2023-04-05T18:57:09.378Z,54
2023-04-05T18:59:09.937Z,55
2023-04-05T19:01:10.198Z,55
2023-04-05T19:03:09.225Z,55
2023-04-05T19:05:12.704Z,55
2023-04-05T19:07:09.923Z,55
2023-04-05T19:09:09.662Z,55
2023-04-05T19:13:12.862Z,56
2023-04-05T19:17:09.408Z,56
2023-04-05T19:19:09.556Z,56
2023-04-05T19:21:09.451Z,56
2023-04-05T19:23:09.446Z,56
2023-04-05T19:25:15.932Z,56
2023-04-05T19:27:09.489Z,56
2023-04-05T19:29:12.712Z,56
2023-04-05T19:31:09.543Z,56
2023-04-05T19:33:10.573Z,56
2023-04-05T19:35:09.506Z,56
2023-04-05T19:37:09.428Z,56
2023-04-05T19:39:09.628Z,56
2023-04-05T19:43:11.173Z,56
2023-04-05T19:45:12.816Z,56
2023-04-05T19:47:09.671Z,56
2023-04-05T19:49:09.695Z,56
2023-04-05T19:51:09.475Z,56
2023-04-05T19:57:09.487Z,56
2023-04-05T19:59:09.603Z,56
2023-04-05T20:01:12.499Z,57
2023-04-05T20:03:09.551Z,57
2023-04-05T20:05:09.556Z,57
2023-04-05T20:07:09.417Z,56
2023-04-05T20:11:12.619Z,57
2023-04-05T20:15:06.629Z,57
2023-04-05T20:17:09.446Z,58
2023-04-05T20:19:09.741Z,58
2023-04-05T20:21:09.510Z,57
2023-04-05T20:23:09.470Z,57
2023-04-05T20:25:12.882Z,57
2023-04-05T20:27:09.480Z,57
2023-04-05T20:29:13.293Z,57
2023-04-05T20:31:12.922Z,57
2023-04-05T20:33:12.692Z,57
2023-04-05T20:35:09.438Z,57
2023-04-05T20:37:12.704Z,57
2023-04-05T20:39:09.680Z,58
2023-04-05T20:41:12.623Z,57
2023-04-05T20:43:11.314Z,57
2023-04-05T20:45:12.973Z,57
2023-04-05T20:47:12.655Z,57
2023-04-05T20:49:15.576Z,58
2023-04-05T20:51:09.439Z,58
2023-04-05T20:53:09.461Z,58
2023-04-05T20:55:09.456Z,57
2023-04-05T20:59:09.694Z,59
2023-04-05T21:01:09.484Z,59
2023-04-05T21:03:10.165Z,59
2023-04-05T21:05:09.483Z,59
2023-04-05T21:07:09.741Z,59
2023-04-05T21:09:10.032Z,59
2023-04-05T21:11:17.105Z,57
2023-04-05T21:13:22.848Z,57
2023-04-05T21:15:11.112Z,57
2023-04-05T21:17:09.442Z,58
2023-04-05T21:19:09.510Z,57
2023-04-05T21:21:09.827Z,56
2023-04-05T21:23:09.655Z,56
2023-04-05T21:25:09.503Z,56
2023-04-05T21:27:12.917Z,56
2023-04-05T21:29:12.799Z,56
2023-04-05T21:31:09.424Z,57
2023-04-05T21:35:09.554Z,57
2023-04-05T21:37:09.498Z,57
2023-04-05T21:41:09.574Z,58
2023-04-05T21:43:09.488Z,59
2023-04-05T21:47:09.503Z,60
2023-04-05T21:49:11.315Z,60
2023-04-05T21:51:06.651Z,60
2023-04-05T21:53:12.662Z,61
2023-04-05T21:55:13.807Z,60
2023-04-05T21:57:09.475Z,60
2023-04-05T21:59:09.739Z,61
2023-04-05T22:01:09.631Z,61
2023-04-05T22:03:09.560Z,61
2023-04-05T22:05:09.709Z,61
2023-04-05T22:07:12.737Z,61
2023-04-05T22:09:09.453Z,61
2023-04-05T22:11:09.447Z,61
2023-04-05T22:13:11.251Z,61
2023-04-05T22:17:09.618Z,61
2023-04-05T22:19:09.571Z,61
2023-04-05T22:21:09.507Z,62
2023-04-05T22:23:09.779Z,62
2023-04-05T22:25:13.120Z,61
2023-04-05T22:29:13.245Z,62
2023-04-05T22:31:09.493Z,62
2023-04-05T22:33:12.773Z,62
2023-04-05T22:35:12.269Z,62
2023-04-05T22:37:09.463Z,62
2023-04-05T22:39:09.778Z,61
2023-04-05T22:41:09.630Z,61
2023-04-05T22:43:12.217Z,61
2023-04-05T22:45:09.467Z,62
2023-04-05T22:47:09.379Z,62
2023-04-05T22:49:09.708Z,62
2023-04-05T22:51:09.652Z,63
2023-04-05T22:53:09.450Z,63
2023-04-05T22:55:09.553Z,63
2023-04-05T22:57:11.173Z,63
2023-04-05T22:59:09.619Z,63
2023-04-05T23:01:12.659Z,63
2023-04-05T23:03:09.498Z,63
2023-04-05T23:05:09.468Z,63
2023-04-05T23:07:09.654Z,63
2023-04-05T23:09:09.904Z,62
2023-04-05T23:13:09.477Z,63
2023-04-05T23:15:09.554Z,65
2023-04-05T23:17:09.542Z,67
2023-04-05T23:19:09.710Z,68
2023-04-05T23:21:12.795Z,67
2023-04-05T23:23:09.427Z,67
2023-04-05T23:25:12.858Z,67
2023-04-05T23:27:09.538Z,68
2023-04-05T23:29:09.577Z,68
2023-04-05T23:31:12.831Z,68
2023-04-05T23:33:21.487Z,67
2023-04-05T23:35:09.533Z,66
2023-04-05T23:37:09.457Z,64
2023-04-05T23:43:09.466Z,65
2023-04-05T23:45:10.619Z,66
2023-04-05T23:47:06.694Z,66
2023-04-05T23:49:09.586Z,65
2023-04-05T23:53:09.485Z,66
2023-04-05T23:55:09.481Z,65
2023-04-05T23:57:09.600Z,64
2023-04-05T23:59:09.693Z,66
